sensor_id;sensor_type;location;lat;lon;timestamp;pressure;altitude;pressure_sealevel;temperature;humidity
32251;BME280;41295;48.518;9.206;2023-01-31T00:01:04;98112.72;;;3.00;73.85
32251;BME280;41295;48.518;9.206;2023-01-31T00:03:07;98113.47;;;2.86;74.39
32251;BME280;41295;48.518;9.206;2023-01-31T00:05:10;98111.84;;;2.99;74.72
32251;BME280;41295;48.518;9.206;2023-01-31T00:07:14;98104.94;;;2.97;74.25
32251;BME280;41295;48.518;9.206;2023-01-31T00:09:17;98098.09;;;3.00;74.20
32251;BME280;41295;48.518;9.206;2023-01-31T00:11:23;98103.19;;;2.88;74.66
32251;BME280;41295;48.518;9.206;2023-01-31T00:13:26;98100.56;;;2.80;75.00
32251;BME280;41295;48.518;9.206;2023-01-31T00:15:29;98097.06;;;2.72;74.97
32251;BME280;41295;48.518;9.206;2023-01-31T00:17:31;98093.72;;;2.87;74.73
32251;BME280;41295;48.518;9.206;2023-01-31T00:19:34;98096.31;;;2.85;74.69
32251;BME280;41295;48.518;9.206;2023-01-31T00:21:36;98094.56;;;2.86;74.89
32251;BME280;41295;48.518;9.206;2023-01-31T00:23:46;98100.56;;;2.83;74.99
32251;BME280;41295;48.518;9.206;2023-01-31T00:25:49;98092.88;;;2.88;74.44
32251;BME280;41295;48.518;9.206;2023-01-31T00:27:51;98096.22;;;2.76;75.36
32251;BME280;41295;48.518;9.206;2023-01-31T00:29:54;98102.28;;;2.83;75.14
32251;BME280;41295;48.518;9.206;2023-01-31T00:31:56;98104.13;;;3.04;74.26
32251;BME280;41295;48.518;9.206;2023-01-31T00:33:59;98094.63;;;2.97;75.00
32251;BME280;41295;48.518;9.206;2023-01-31T00:36:03;98093.81;;;3.01;73.87
32251;BME280;41295;48.518;9.206;2023-01-31T00:38:07;98099.69;;;2.81;74.79
32251;BME280;41295;48.518;9.206;2023-01-31T00:40:11;98099.78;;;2.97;74.52
32251;BME280;41295;48.518;9.206;2023-01-31T00:42:17;98099.78;;;2.95;74.47
32251;BME280;41295;48.518;9.206;2023-01-31T00:44:19;98097.28;;;3.03;74.56
32251;BME280;41295;48.518;9.206;2023-01-31T00:46:22;98094.63;;;2.91;74.38
32251;BME280;41295;48.518;9.206;2023-01-31T00:48:25;98090.28;;;2.86;74.50
32251;BME280;41295;48.518;9.206;2023-01-31T00:50:27;98091.06;;;2.74;74.81
32251;BME280;41295;48.518;9.206;2023-01-31T00:52:30;98092.75;;;2.71;75.76
32251;BME280;41295;48.518;9.206;2023-01-31T00:54:33;98090.28;;;2.85;74.91
32251;BME280;41295;48.518;9.206;2023-01-31T00:56:37;98093.75;;;2.92;74.58
32251;BME280;41295;48.518;9.206;2023-01-31T00:58:39;98086.00;;;2.87;74.41
32251;BME280;41295;48.518;9.206;2023-01-31T01:00:42;98084.19;;;2.73;74.54
32251;BME280;41295;48.518;9.206;2023-01-31T01:02:45;98098.81;;;2.79;74.43
32251;BME280;41295;48.518;9.206;2023-01-31T01:04:48;98094.47;;;2.70;73.79
32251;BME280;41295;48.518;9.206;2023-01-31T01:06:53;98098.78;;;2.73;74.33
32251;BME280;41295;48.518;9.206;2023-01-31T01:08:56;98097.03;;;2.70;74.82
32251;BME280;41295;48.518;9.206;2023-01-31T01:11:04;98097.03;;;2.66;74.67
32251;BME280;41295;48.518;9.206;2023-01-31T01:13:08;98093.59;;;2.67;74.44
32251;BME280;41295;48.518;9.206;2023-01-31T01:15:11;98102.19;;;2.70;74.41
32251;BME280;41295;48.518;9.206;2023-01-31T01:17:13;98102.16;;;2.64;74.07
32251;BME280;41295;48.518;9.206;2023-01-31T01:19:17;98095.31;;;2.68;73.86
32251;BME280;41295;48.518;9.206;2023-01-31T01:21:22;98098.66;;;2.56;74.25
32251;BME280;41295;48.518;9.206;2023-01-31T01:23:25;98097.03;;;2.69;73.93
32251;BME280;41295;48.518;9.206;2023-01-31T01:25:28;98099.59;;;2.62;73.77
32251;BME280;41295;48.518;9.206;2023-01-31T01:27:31;98100.41;;;2.63;74.14
32251;BME280;41295;48.518;9.206;2023-01-31T01:29:37;98107.31;;;2.64;73.60
32251;BME280;41295;48.518;9.206;2023-01-31T01:31:39;98099.41;;;2.44;74.03
32251;BME280;41295;48.518;9.206;2023-01-31T01:33:43;98097.75;;;2.49;74.25
32251;BME280;41295;48.518;9.206;2023-01-31T01:35:46;98102.97;;;2.58;73.82
32251;BME280;41295;48.518;9.206;2023-01-31T01:37:48;98099.44;;;2.45;74.22
32251;BME280;41295;48.518;9.206;2023-01-31T01:39:51;98097.72;;;2.47;74.32
32251;BME280;41295;48.518;9.206;2023-01-31T01:41:55;98095.88;;;2.31;74.65
32251;BME280;41295;48.518;9.206;2023-01-31T01:43:58;98093.25;;;2.26;74.41
32251;BME280;41295;48.518;9.206;2023-01-31T01:46:03;98092.38;;;2.25;74.60
32251;BME280;41295;48.518;9.206;2023-01-31T01:48:06;98090.78;;;2.35;74.25
32251;BME280;41295;48.518;9.206;2023-01-31T01:50:12;98083.88;;;2.31;74.07
32251;BME280;41295;48.518;9.206;2023-01-31T01:52:17;98087.22;;;2.22;74.29
32251;BME280;41295;48.518;9.206;2023-01-31T01:54:23;98094.91;;;2.19;74.34
32251;BME280;41295;48.518;9.206;2023-01-31T01:56:29;98103.47;;;2.16;74.69
32251;BME280;41295;48.518;9.206;2023-01-31T01:58:38;98091.50;;;2.22;75.06
32251;BME280;41295;48.518;9.206;2023-01-31T02:00:44;98098.44;;;2.29;74.81
32251;BME280;41295;48.518;9.206;2023-01-31T02:02:52;98097.59;;;2.30;74.10
32251;BME280;41295;48.518;9.206;2023-01-31T02:04:56;98095.94;;;2.35;74.16
32251;BME280;41295;48.518;9.206;2023-01-31T02:06:59;98099.41;;;2.44;73.98
32251;BME280;41295;48.518;9.206;2023-01-31T02:09:05;98102.88;;;2.49;73.49
32251;BME280;41295;48.518;9.206;2023-01-31T02:11:13;98108.84;;;2.43;73.50
32251;BME280;41295;48.518;9.206;2023-01-31T02:13:18;98106.25;;;2.38;74.46
32251;BME280;41295;48.518;9.206;2023-01-31T02:15:22;98107.09;;;2.37;74.42
32251;BME280;41295;48.518;9.206;2023-01-31T02:17:26;98108.88;;;2.45;73.68
32251;BME280;41295;48.518;9.206;2023-01-31T02:19:34;98107.91;;;2.32;74.14
32251;BME280;41295;48.518;9.206;2023-01-31T02:21:54;98109.63;;;2.34;74.60
32251;BME280;41295;48.518;9.206;2023-01-31T02:24:22;98119.22;;;2.52;73.77
32251;BME280;41295;48.518;9.206;2023-01-31T02:27:01;98100.28;;;2.41;73.87
32251;BME280;41295;48.518;9.206;2023-01-31T02:29:27;98102.09;;;2.59;72.73
32251;BME280;41295;48.518;9.206;2023-01-31T02:34:28;98106.25;;;2.38;73.71
32251;BME280;41295;48.518;9.206;2023-01-31T02:36:41;98110.50;;;2.33;74.09
32251;BME280;41295;48.518;9.206;2023-01-31T02:38:54;98112.97;;;2.24;74.32
32251;BME280;41295;48.518;9.206;2023-01-31T02:41:06;98102.69;;;2.24;74.53
32251;BME280;41295;48.518;9.206;2023-01-31T02:43:18;98094.13;;;2.26;74.70
32251;BME280;41295;48.518;9.206;2023-01-31T02:45:30;98103.53;;;2.24;73.95
32251;BME280;41295;48.518;9.206;2023-01-31T02:47:47;98111.25;;;2.24;74.09
32251;BME280;41295;48.518;9.206;2023-01-31T02:49:55;98112.06;;;2.20;73.10
32251;BME280;41295;48.518;9.206;2023-01-31T02:52:04;98106.88;;;2.12;74.33
32251;BME280;41295;48.518;9.206;2023-01-31T02:54:20;98112.91;;;2.16;74.18
32251;BME280;41295;48.518;9.206;2023-01-31T02:56:47;98118.84;;;2.07;74.34
32251;BME280;41295;48.518;9.206;2023-01-31T02:58:54;98119.63;;;2.03;74.49
32251;BME280;41295;48.518;9.206;2023-01-31T03:00:59;98113.59;;;2.01;74.99
32251;BME280;41295;48.518;9.206;2023-01-31T03:03:07;98121.44;;;2.10;73.92
32251;BME280;41295;48.518;9.206;2023-01-31T03:05:18;98124.78;;;2.03;74.37
32251;BME280;41295;48.518;9.206;2023-01-31T03:07:23;98127.44;;;2.11;73.64
32251;BME280;41295;48.518;9.206;2023-01-31T03:09:37;98125.72;;;2.13;74.23
32251;BME280;41295;48.518;9.206;2023-01-31T03:11:47;98129.94;;;2.06;74.06
32251;BME280;41295;48.518;9.206;2023-01-31T03:13:58;98127.41;;;2.09;73.91
32251;BME280;41295;48.518;9.206;2023-01-31T03:16:15;98131.75;;;2.13;74.36
32251;BME280;41295;48.518;9.206;2023-01-31T03:18:41;98121.44;;;2.12;74.18
32251;BME280;41295;48.518;9.206;2023-01-31T03:20:49;98123.16;;;2.14;73.55
32251;BME280;41295;48.518;9.206;2023-01-31T03:22:57;98126.69;;;2.20;73.54
32251;BME280;41295;48.518;9.206;2023-01-31T03:25:03;98130.94;;;2.19;73.17
32251;BME280;41295;48.518;9.206;2023-01-31T03:27:07;98125.72;;;2.11;73.42
32251;BME280;41295;48.518;9.206;2023-01-31T03:29:14;98123.09;;;2.03;74.26
32251;BME280;41295;48.518;9.206;2023-01-31T03:31:20;98123.22;;;2.18;73.25
32251;BME280;41295;48.518;9.206;2023-01-31T03:33:28;98125.78;;;2.18;73.87
32251;BME280;41295;48.518;9.206;2023-01-31T03:35:33;98127.34;;;2.03;73.49
32251;BME280;41295;48.518;9.206;2023-01-31T03:37:43;98132.34;;;1.87;74.31
32251;BME280;41295;48.518;9.206;2023-01-31T03:39:53;98129.06;;;2.04;73.75
32251;BME280;41295;48.518;9.206;2023-01-31T03:42:01;98139.38;;;2.04;74.26
32251;BME280;41295;48.518;9.206;2023-01-31T03:44:11;98150.56;;;2.08;73.68
32251;BME280;41295;48.518;9.206;2023-01-31T03:46:19;98147.97;;;2.08;74.09
32251;BME280;41295;48.518;9.206;2023-01-31T03:48:27;98146.31;;;2.14;73.04
32251;BME280;41295;48.518;9.206;2023-01-31T03:50:37;98151.41;;;2.05;74.02
32251;BME280;41295;48.518;9.206;2023-01-31T03:52:48;98144.47;;;1.99;73.70
32251;BME280;41295;48.518;9.206;2023-01-31T03:54:55;98142.78;;;2.00;73.49
32251;BME280;41295;48.518;9.206;2023-01-31T03:57:05;98141.91;;;2.01;73.57
32251;BME280;41295;48.518;9.206;2023-01-31T03:59:13;98135.97;;;2.05;74.09
32251;BME280;41295;48.518;9.206;2023-01-31T04:01:17;98134.97;;;1.92;73.96
32251;BME280;41295;48.518;9.206;2023-01-31T04:03:26;98130.69;;;1.94;74.34
32251;BME280;41295;48.518;9.206;2023-01-31T04:05:30;98136.75;;;1.99;73.82
32251;BME280;41295;48.518;9.206;2023-01-31T04:07:34;98147.94;;;2.04;73.43
32251;BME280;41295;48.518;9.206;2023-01-31T04:09:39;98139.53;;;2.20;73.55
32251;BME280;41295;48.518;9.206;2023-01-31T04:11:47;98134.22;;;2.04;73.63
32251;BME280;41295;48.518;9.206;2023-01-31T04:13:49;98141.91;;;2.01;74.11
32251;BME280;41295;48.518;9.206;2023-01-31T04:15:52;98146.19;;;2.02;74.30
32251;BME280;41295;48.518;9.206;2023-01-31T04:17:55;98149.63;;;2.01;73.86
32251;BME280;41295;48.518;9.206;2023-01-31T04:20:00;98152.16;;;1.95;74.21
32251;BME280;41295;48.518;9.206;2023-01-31T04:22:03;98159.03;;;1.97;74.59
32251;BME280;41295;48.518;9.206;2023-01-31T04:24:06;98154.00;;;2.10;73.78
32251;BME280;41295;48.518;9.206;2023-01-31T04:26:11;98157.28;;;1.95;74.05
32251;BME280;41295;48.518;9.206;2023-01-31T04:28:13;98163.47;;;2.12;73.32
32251;BME280;41295;48.518;9.206;2023-01-31T04:30:17;98162.50;;;2.01;74.37
32251;BME280;41295;48.518;9.206;2023-01-31T04:32:19;98162.50;;;2.01;74.19
32251;BME280;41295;48.518;9.206;2023-01-31T04:34:22;98155.66;;;2.03;74.20
32251;BME280;41295;48.518;9.206;2023-01-31T04:36:24;98153.84;;;1.92;74.10
32251;BME280;41295;48.518;9.206;2023-01-31T04:38:27;98154.72;;;1.96;74.61
32251;BME280;41295;48.518;9.206;2023-01-31T04:40:30;98154.78;;;2.02;73.30
32251;BME280;41295;48.518;9.206;2023-01-31T04:42:36;98160.81;;;2.03;74.09
32251;BME280;41295;48.518;9.206;2023-01-31T04:44:39;98160.63;;;1.87;73.95
32251;BME280;41295;48.518;9.206;2023-01-31T04:46:41;98165.19;;;2.10;74.17
32251;BME280;41295;48.518;9.206;2023-01-31T04:48:44;98154.66;;;1.91;73.98
32251;BME280;41295;48.518;9.206;2023-01-31T04:50:47;98157.09;;;1.80;74.29
32251;BME280;41295;48.518;9.206;2023-01-31T04:52:50;98160.53;;;1.79;74.66
32251;BME280;41295;48.518;9.206;2023-01-31T04:54:53;98160.53;;;1.79;75.05
32251;BME280;41295;48.518;9.206;2023-01-31T04:56:55;98162.34;;;1.87;74.11
32251;BME280;41295;48.518;9.206;2023-01-31T04:58:59;98169.13;;;1.80;74.68
32251;BME280;41295;48.518;9.206;2023-01-31T05:01:02;98166.56;;;1.82;74.81
32251;BME280;41295;48.518;9.206;2023-01-31T05:03:05;98161.41;;;1.80;74.85
32251;BME280;41295;48.518;9.206;2023-01-31T05:05:08;98159.81;;;1.91;73.99
32251;BME280;41295;48.518;9.206;2023-01-31T05:07:13;98158.91;;;1.86;74.26
32251;BME280;41295;48.518;9.206;2023-01-31T05:09:15;98163.09;;;1.78;74.76
32251;BME280;41295;48.518;9.206;2023-01-31T05:11:18;98174.25;;;1.77;74.76
32251;BME280;41295;48.518;9.206;2023-01-31T05:13:21;98173.34;;;1.75;75.15
32251;BME280;41295;48.518;9.206;2023-01-31T05:15:25;98173.34;;;1.75;74.80
32251;BME280;41295;48.518;9.206;2023-01-31T05:17:28;98168.22;;;1.76;74.92
32251;BME280;41295;48.518;9.206;2023-01-31T05:19:31;98165.69;;;1.79;74.49
32251;BME280;41295;48.518;9.206;2023-01-31T05:21:34;98164.81;;;1.80;74.66
32251;BME280;41295;48.518;9.206;2023-01-31T05:23:55;98157.97;;;1.81;74.44
32251;BME280;41295;48.518;9.206;2023-01-31T05:25:58;98164.03;;;1.85;74.36
32251;BME280;41295;48.518;9.206;2023-01-31T05:28:01;98169.13;;;1.82;74.82
32251;BME280;41295;48.518;9.206;2023-01-31T05:30:04;98169.25;;;1.89;74.40
32251;BME280;41295;48.518;9.206;2023-01-31T05:32:09;98171.84;;;1.92;74.24
32251;BME280;41295;48.518;9.206;2023-01-31T05:34:11;98168.28;;;1.83;74.30
32251;BME280;41295;48.518;9.206;2023-01-31T05:36:16;98165.72;;;1.83;74.61
32251;BME280;41295;48.518;9.206;2023-01-31T05:38:18;98170.91;;;1.86;75.10
32251;BME280;41295;48.518;9.206;2023-01-31T05:40:21;98172.66;;;1.90;74.67
32251;BME280;41295;48.518;9.206;2023-01-31T05:42:24;98168.34;;;1.87;74.58
32251;BME280;41295;48.518;9.206;2023-01-31T05:44:26;98171.97;;;2.03;74.06
32251;BME280;41295;48.518;9.206;2023-01-31T05:46:29;98165.94;;;2.01;74.56
32251;BME280;41295;48.518;9.206;2023-01-31T05:48:34;98169.34;;;2.00;74.92
32251;BME280;41295;48.518;9.206;2023-01-31T05:50:37;98172.81;;;2.04;73.93
32251;BME280;41295;48.518;9.206;2023-01-31T05:52:40;98166.00;;;2.08;74.59
32251;BME280;41295;48.518;9.206;2023-01-31T05:54:42;98172.94;;;2.15;73.27
32251;BME280;41295;48.518;9.206;2023-01-31T05:56:45;98173.81;;;2.15;74.21
32251;BME280;41295;48.518;9.206;2023-01-31T05:58:47;98183.19;;;2.12;74.21
32251;BME280;41295;48.518;9.206;2023-01-31T06:00:54;98183.19;;;2.10;73.94
32251;BME280;41295;48.518;9.206;2023-01-31T06:02:57;98176.38;;;2.14;73.97
32251;BME280;41295;48.518;9.206;2023-01-31T06:05:01;98180.66;;;2.15;74.35
32251;BME280;41295;48.518;9.206;2023-01-31T06:07:04;98176.34;;;2.12;74.14
32251;BME280;41295;48.518;9.206;2023-01-31T06:09:07;98162.66;;;2.16;73.86
32251;BME280;41295;48.518;9.206;2023-01-31T06:11:12;98174.69;;;2.16;74.19
32251;BME280;41295;48.518;9.206;2023-01-31T06:13:15;98179.03;;;2.23;73.64
32251;BME280;41295;48.518;9.206;2023-01-31T06:15:17;98169.59;;;2.22;73.35
32251;BME280;41295;48.518;9.206;2023-01-31T06:17:20;98177.31;;;2.24;73.00
32251;BME280;41295;48.518;9.206;2023-01-31T06:19:24;98173.25;;;2.46;71.97
32251;BME280;41295;48.518;9.206;2023-01-31T06:21:28;98173.94;;;2.28;72.84
32251;BME280;41295;48.518;9.206;2023-01-31T06:23:31;98173.09;;;2.31;72.88
32251;BME280;41295;48.518;9.206;2023-01-31T06:25:34;98178.34;;;2.42;71.95
32251;BME280;41295;48.518;9.206;2023-01-31T06:27:37;98182.53;;;2.30;72.80
32251;BME280;41295;48.518;9.206;2023-01-31T06:29:40;98186.03;;;2.38;72.61
32251;BME280;41295;48.518;9.206;2023-01-31T06:31:43;98186.91;;;2.36;73.25
32251;BME280;41295;48.518;9.206;2023-01-31T06:33:46;98185.13;;;2.30;73.05
32251;BME280;41295;48.518;9.206;2023-01-31T06:35:49;98183.38;;;2.29;72.80
32251;BME280;41295;48.518;9.206;2023-01-31T06:37:53;98185.28;;;2.47;71.68
32251;BME280;41295;48.518;9.206;2023-01-31T06:39:56;98184.34;;;2.37;72.47
32251;BME280;41295;48.518;9.206;2023-01-31T06:41:59;98185.19;;;2.39;71.55
32251;BME280;41295;48.518;9.206;2023-01-31T06:44:02;98187.03;;;2.50;71.03
32251;BME280;41295;48.518;9.206;2023-01-31T06:46:04;98186.97;;;2.45;71.59
32251;BME280;41295;48.518;9.206;2023-01-31T06:48:07;98182.59;;;2.39;72.25
32251;BME280;41295;48.518;9.206;2023-01-31T06:50:12;98184.34;;;2.40;72.49
32251;BME280;41295;48.518;9.206;2023-01-31T06:52:15;98181.69;;;2.31;71.65
32251;BME280;41295;48.518;9.206;2023-01-31T06:54:19;98185.94;;;2.29;71.75
32251;BME280;41295;48.518;9.206;2023-01-31T06:56:22;98189.34;;;2.25;72.31
32251;BME280;41295;48.518;9.206;2023-01-31T06:58:25;98192.00;;;2.33;71.89
32251;BME280;41295;48.518;9.206;2023-01-31T07:00:28;98192.03;;;2.36;71.29
32251;BME280;41295;48.518;9.206;2023-01-31T07:02:31;98191.16;;;2.35;70.91
32251;BME280;41295;48.518;9.206;2023-01-31T07:04:34;98193.66;;;2.29;70.96
32251;BME280;41295;48.518;9.206;2023-01-31T07:06:37;98191.09;;;2.31;71.17
32251;BME280;41295;48.518;9.206;2023-01-31T07:08:39;98186.81;;;2.28;71.71
32251;BME280;41295;48.518;9.206;2023-01-31T07:10:43;98180.88;;;2.35;71.19
32251;BME280;41295;48.518;9.206;2023-01-31T07:12:46;98185.94;;;2.29;70.92
32251;BME280;41295;48.518;9.206;2023-01-31T07:14:49;98192.00;;;2.33;71.22
32251;BME280;41295;48.518;9.206;2023-01-31T07:16:52;98190.38;;;2.41;71.18
32251;BME280;41295;48.518;9.206;2023-01-31T07:18:55;98199.78;;;2.37;71.00
32251;BME280;41295;48.518;9.206;2023-01-31T07:20:57;98188.53;;;2.31;70.84
32251;BME280;41295;48.518;9.206;2023-01-31T07:23:00;98186.03;;;2.37;70.42
32251;BME280;41295;48.518;9.206;2023-01-31T07:25:03;98189.50;;;2.40;70.33
32251;BME280;41295;48.518;9.206;2023-01-31T07:27:07;98183.38;;;2.31;70.47
32251;BME280;41295;48.518;9.206;2023-01-31T07:29:10;98187.69;;;2.30;70.76
32251;BME280;41295;48.518;9.206;2023-01-31T07:31:13;98181.69;;;2.34;71.19
32251;BME280;41295;48.518;9.206;2023-01-31T07:33:16;98185.16;;;2.35;70.14
32251;BME280;41295;48.518;9.206;2023-01-31T07:35:19;98184.28;;;2.34;71.15
32251;BME280;41295;48.518;9.206;2023-01-31T07:37:22;98180.88;;;2.35;70.84
32251;BME280;41295;48.518;9.206;2023-01-31T07:39:25;98184.34;;;2.39;70.00
32251;BME280;41295;48.518;9.206;2023-01-31T07:41:27;98185.16;;;2.36;70.53
32251;BME280;41295;48.518;9.206;2023-01-31T07:43:31;98186.25;;;2.57;69.59
32251;BME280;41295;48.518;9.206;2023-01-31T07:45:34;98192.09;;;2.45;69.43
32251;BME280;41295;48.518;9.206;2023-01-31T07:47:37;98183.56;;;2.48;69.17
32251;BME280;41295;48.518;9.206;2023-01-31T07:49:40;98182.66;;;2.43;70.22
32251;BME280;41295;48.518;9.206;2023-01-31T07:51:42;98192.09;;;2.42;70.02
32251;BME280;41295;48.518;9.206;2023-01-31T07:53:45;98192.88;;;2.36;69.81
32251;BME280;41295;48.518;9.206;2023-01-31T07:55:48;98183.44;;;2.34;69.74
32251;BME280;41295;48.518;9.206;2023-01-31T07:57:50;98193.78;;;2.42;69.90
32251;BME280;41295;48.518;9.206;2023-01-31T07:59:54;98193.72;;;2.34;70.48
32251;BME280;41295;48.518;9.206;2023-01-31T08:01:57;98191.16;;;2.32;70.76
32251;BME280;41295;48.518;9.206;2023-01-31T08:04:17;98199.72;;;2.33;70.37
32251;BME280;41295;48.518;9.206;2023-01-31T08:06:23;98195.66;;;2.57;69.38
32251;BME280;41295;48.518;9.206;2023-01-31T08:08:25;98201.59;;;2.49;69.76
32251;BME280;41295;48.518;9.206;2023-01-31T08:10:28;98200.03;;;2.67;69.00
32251;BME280;41295;48.518;9.206;2023-01-31T08:12:31;98201.03;;;2.80;68.83
32251;BME280;41295;48.518;9.206;2023-01-31T08:14:33;98194.06;;;2.70;69.05
32251;BME280;41295;48.518;9.206;2023-01-31T08:16:37;98188.16;;;2.82;68.42
32251;BME280;41295;48.518;9.206;2023-01-31T08:18:40;98194.09;;;2.71;69.22
32251;BME280;41295;48.518;9.206;2023-01-31T08:20:43;98188.09;;;2.77;69.14
32251;BME280;41295;48.518;9.206;2023-01-31T08:22:45;98199.41;;;2.93;67.86
32251;BME280;41295;48.518;9.206;2023-01-31T08:24:48;98193.41;;;2.93;68.00
32251;BME280;41295;48.518;9.206;2023-01-31T08:26:50;98206.13;;;2.75;68.77
32251;BME280;41295;48.518;9.206;2023-01-31T08:28:53;98203.69;;;2.91;67.95
32251;BME280;41295;48.518;9.206;2023-01-31T08:30:56;98193.41;;;2.94;68.17
32251;BME280;41295;48.518;9.206;2023-01-31T08:33:10;98200.34;;;3.00;67.92
32251;BME280;41295;48.518;9.206;2023-01-31T08:35:13;98200.19;;;2.84;67.92
32251;BME280;41295;48.518;9.206;2023-01-31T08:37:16;98206.28;;;2.94;67.49
32251;BME280;41295;48.518;9.206;2023-01-31T08:39:19;98207.19;;;3.01;67.64
32251;BME280;41295;48.518;9.206;2023-01-31T08:41:22;98202.94;;;3.06;67.33
32251;BME280;41295;48.518;9.206;2023-01-31T08:43:25;98211.53;;;3.05;67.11
32251;BME280;41295;48.518;9.206;2023-01-31T08:45:29;98200.38;;;3.06;67.23
32251;BME280;41295;48.518;9.206;2023-01-31T08:47:32;98202.94;;;3.05;67.49
32251;BME280;41295;48.518;9.206;2023-01-31T08:49:35;98201.31;;;3.18;66.75
32251;BME280;41295;48.518;9.206;2023-01-31T08:51:39;98200.44;;;3.12;67.09
32251;BME280;41295;48.518;9.206;2023-01-31T08:53:43;98195.22;;;3.08;67.04
32251;BME280;41295;48.518;9.206;2023-01-31T08:55:46;98187.41;;;2.98;67.89
32251;BME280;41295;48.518;9.206;2023-01-31T08:57:49;98183.28;;;3.16;67.23
32251;BME280;41295;48.518;9.206;2023-01-31T09:00:00;98174.56;;;3.03;67.33
32251;BME280;41295;48.518;9.206;2023-01-31T09:02:03;98169.44;;;3.09;67.36
32251;BME280;41295;48.518;9.206;2023-01-31T09:04:05;98170.31;;;3.10;67.87
32251;BME280;41295;48.518;9.206;2023-01-31T09:06:13;98173.78;;;3.15;67.88
32251;BME280;41295;48.518;9.206;2023-01-31T09:08:16;98175.53;;;3.18;67.29
32251;BME280;41295;48.518;9.206;2023-01-31T09:10:19;98176.38;;;3.13;67.45
32251;BME280;41295;48.518;9.206;2023-01-31T09:12:22;98181.56;;;3.20;67.53
32251;BME280;41295;48.518;9.206;2023-01-31T09:14:25;98173.00;;;3.24;66.96
32251;BME280;41295;48.518;9.206;2023-01-31T09:16:28;98170.38;;;3.18;67.72
32251;BME280;41295;48.518;9.206;2023-01-31T09:18:31;98173.00;;;3.25;67.89
32251;BME280;41295;48.518;9.206;2023-01-31T09:20:34;98170.56;;;3.49;66.58
32251;BME280;41295;48.518;9.206;2023-01-31T09:22:38;98167.91;;;3.40;66.55
32251;BME280;41295;48.518;9.206;2023-01-31T09:24:41;98175.69;;;3.43;66.09
32251;BME280;41295;48.518;9.206;2023-01-31T09:26:43;98180.78;;;3.30;66.38
32251;BME280;41295;48.518;9.206;2023-01-31T09:28:46;98179.91;;;3.30;66.65
32251;BME280;41295;48.518;9.206;2023-01-31T09:30:51;98184.34;;;3.56;65.19
32251;BME280;41295;48.518;9.206;2023-01-31T09:32:54;98182.63;;;3.50;65.37
32251;BME280;41295;48.518;9.206;2023-01-31T09:34:56;98188.66;;;3.55;65.60
32251;BME280;41295;48.518;9.206;2023-01-31T09:36:59;98178.41;;;3.68;65.43
32251;BME280;41295;48.518;9.206;2023-01-31T09:39:03;98184.38;;;3.60;64.72
32251;BME280;41295;48.518;9.206;2023-01-31T09:41:14;98182.69;;;3.66;64.68
32251;BME280;41295;48.518;9.206;2023-01-31T09:43:22;98176.66;;;3.59;65.38
32251;BME280;41295;48.518;9.206;2023-01-31T09:45:29;98178.41;;;3.74;65.25
32251;BME280;41295;48.518;9.206;2023-01-31T09:47:35;98173.25;;;3.72;65.20
32251;BME280;41295;48.518;9.206;2023-01-31T09:49:43;98170.72;;;3.85;64.64
32251;BME280;41295;48.518;9.206;2023-01-31T09:51:51;98176.75;;;3.85;64.27
32251;BME280;41295;48.518;9.206;2023-01-31T09:53:55;98172.47;;;3.89;63.92
32251;BME280;41295;48.518;9.206;2023-01-31T09:56:11;98181.09;;;3.99;63.34
32251;BME280;41295;48.518;9.206;2023-01-31T09:58:22;98184.56;;;4.01;63.32
32251;BME280;41295;48.518;9.206;2023-01-31T10:00:31;98173.34;;;3.93;63.76
32251;BME280;41295;48.518;9.206;2023-01-31T10:02:54;98178.50;;;3.97;63.97
32251;BME280;41295;48.518;9.206;2023-01-31T10:05:09;98158.78;;;4.09;63.27
32251;BME280;41295;48.518;9.206;2023-01-31T10:07:19;98161.34;;;4.11;63.49
32251;BME280;41295;48.518;9.206;2023-01-31T10:09:28;98156.22;;;4.25;62.57
32251;BME280;41295;48.518;9.206;2023-01-31T10:11:40;98157.09;;;4.36;62.17
32251;BME280;41295;48.518;9.206;2023-01-31T10:13:47;98157.09;;;4.28;62.22
32251;BME280;41295;48.518;9.206;2023-01-31T10:15:54;98162.28;;;4.41;61.49
32251;BME280;41295;48.518;9.206;2023-01-31T10:18:01;98155.38;;;4.33;61.72
32251;BME280;41295;48.518;9.206;2023-01-31T10:20:16;98165.72;;;4.43;61.58
32251;BME280;41295;48.518;9.206;2023-01-31T10:22:25;98165.72;;;4.43;61.03
32251;BME280;41295;48.518;9.206;2023-01-31T10:24:32;98157.09;;;4.30;61.60
32251;BME280;41295;48.518;9.206;2023-01-31T10:26:41;98158.81;;;4.29;61.49
32251;BME280;41295;48.518;9.206;2023-01-31T10:28:48;98168.28;;;4.35;60.95
32251;BME280;41295;48.518;9.206;2023-01-31T10:30:57;98169.16;;;4.42;60.87
32251;BME280;41295;48.518;9.206;2023-01-31T10:33:09;98168.31;;;4.49;59.93
32251;BME280;41295;48.518;9.206;2023-01-31T10:35:22;98169.19;;;4.62;59.25
32251;BME280;41295;48.518;9.206;2023-01-31T10:37:31;98170.88;;;4.52;59.70
32251;BME280;41295;48.518;9.206;2023-01-31T10:39:39;98176.94;;;4.51;60.09
32251;BME280;41295;48.518;9.206;2023-01-31T10:41:58;98169.19;;;4.59;59.52
32251;BME280;41295;48.518;9.206;2023-01-31T10:44:12;98164.00;;;4.47;59.82
32251;BME280;41295;48.518;9.206;2023-01-31T10:46:18;98153.66;;;4.36;61.01
32251;BME280;41295;48.518;9.206;2023-01-31T10:48:22;98153.69;;;4.51;60.42
32251;BME280;41295;48.518;9.206;2023-01-31T10:50:30;98140.75;;;4.53;59.97
32251;BME280;41295;48.518;9.206;2023-01-31T10:53:00;98141.63;;;4.42;60.75
32251;BME280;41295;48.518;9.206;2023-01-31T10:55:22;98136.47;;;4.50;60.45
32251;BME280;41295;48.518;9.206;2023-01-31T10:57:32;98138.16;;;4.43;61.28
32251;BME280;41295;48.518;9.206;2023-01-31T10:59:38;98122.66;;;4.57;60.69
32251;BME280;41295;48.518;9.206;2023-01-31T11:01:42;98133.00;;;4.68;60.58
32251;BME280;41295;48.518;9.206;2023-01-31T11:03:48;98132.16;;;4.80;59.90
32251;BME280;41295;48.518;9.206;2023-01-31T11:05:53;98133.88;;;4.85;59.05
32251;BME280;41295;48.518;9.206;2023-01-31T11:07:56;98136.44;;;4.86;59.22
32251;BME280;41295;48.518;9.206;2023-01-31T11:10:19;98128.69;;;4.83;59.29
32251;BME280;41295;48.518;9.206;2023-01-31T11:15:05;98126.97;;;4.76;59.99
32251;BME280;41295;48.518;9.206;2023-01-31T11:17:14;98128.69;;;4.86;59.70
32251;BME280;41295;48.518;9.206;2023-01-31T11:19:22;98128.72;;;4.81;59.63